Weather observations for the past three days for
St. Petersburg/Clearwater Airport
Imperial (Metric)
Date Time (edt) Wind (mph) Vis. (mi.) Weather Sky Cond. Temperature (ºF) Relative Humidity Wind Chill (°F) Heat Index (°F) Pressure Precipitation (in)
Air Dwpt 6 hour altimeter (in) sea level (mb) 1 hr 3 hr 6 hr
Max. Min.
10 08:53 SE 6 10.00 A Few Clouds FEW065 81 75 82% 87 30.01 1016.2
10 07:53 SE 5 10.00 Fair CLR 78.1 73 79 75.9 85% 81 29.99 1015.6
10 06:53 SE 6 10.00 A Few Clouds FEW018 77 73 88% 78 29.96 1014.6
10 05:53 SE 3 10.00 Partly Cloudy SCT014 77 75 94% 78 29.93 1013.6
10 04:53 SE 5 10.00 Mostly Cloudy FEW016 BKN022 78.1 73.9 87% 81 29.92 1013.1
10 03:53 S 5 10.00 Fair CLR 77 75 94% 78 29.92 1013.3
10 02:53 SE 6 9.00 A Few Clouds FEW065 78.1 75.9 93% 81 29.93 1013.5
10 01:53 Calm 10.00 Overcast FEW015 BKN031 OVC070 79 77 82 77 94% 83 29.95 1014.3
10 00:53 Calm 10.00 Overcast FEW013 BKN035 OVC060 80.1 75.9 87% 85 29.97 1014.9
09 23:53 SW 3 10.00 Partly Cloudy SCT065 78.1 73.9 87% 81 29.97 1014.8
09 22:53 Calm 10.00 Partly Cloudy SCT070 79 73.9 85% 83 29.97 1014.8
09 21:53 W 3 10.00 Overcast BKN060 BKN075 OVC090 78.1 72 82% 80 29.96 1014.3
09 20:53 W 8 10.00 Mostly Cloudy SCT065 BKN100 81 73.9 79% 86 29.94 1013.6
09 19:53 SW 8 10.00 Fair CLR 82 73.9 91 82 77% 88 29.91 1012.9
09 18:53 SW 12 10.00 Mostly Cloudy BKN120 82.9 73.9 74% 89 29.9 1012.5
09 17:53 SW 16 10.00 Fair CLR 84.9 73.9 70% 92 29.89 1012.2
09 16:53 SW 16 10.00 Fair CLR 88 71.1 57% 94 29.88 1011.9
09 15:53 SW 14 10.00 Fair CLR 89.1 69.1 52% 94 29.9 1012.4
09 14:53 S 13 G 24 10.00 Partly Cloudy SCT100 89.1 70 53% 94 29.92 1013.1
09 13:53 SW 15 10.00 Fair CLR 91 69.1 91.9 77 49% 96 29.93 1013.3
09 12:53 S 13 G 24 10.00 Fair CLR 90 66.9 47% 93 29.92 1013.3
09 11:53 S 10 G 20 10.00 Fair CLR 91 68 47% 95 29.93 1013.5
09 10:53 S 8 10.00 Fair CLR 87.1 71.1 59% 93 29.94 1013.9
09 09:53 Vrbl 5 10.00 Partly Cloudy SCT085 81 75 82% 87 29.95 1014.2
09 08:53 Vrbl 3 10.00 A Few Clouds FEW090 80.1 73.9 82% 85 29.94 1013.8
09 07:53 Calm 10.00 Overcast OVC090 77 73.9 78.1 73 90% 78 29.94 1013.8
09 06:53 S 5 7.00 Mostly Cloudy BKN090 75 73 94% 73 29.91 1012.8
09 05:53 S 6 9.00 Partly Cloudy SCT090 73.9 72 94% 29.91 1012.6
09 04:53 Calm 10.00 A Few Clouds FEW012 77 73 88% 78 29.91 1012.8
09 03:53 NE 5 10.00 A Few Clouds FEW010 78.1 73.9 87% 81 29.92 1013.0
09 02:53 NE 5 10.00 Fair CLR 78.1 75 90% 81 29.93 1013.4
09 01:53 NE 6 10.00 Fair CLR 78.1 73.9 82 75.9 87% 81 29.95 1014.2
09 00:53 N 3 10.00 Fair CLR 77 73.9 90% 78 29.97 1014.8
08 23:53 NW 5 10.00 Fair CLR 77 73 88% 78 29.98 1015.1
08 22:53 NW 8 10.00 Fair CLR 78.1 73.9 87% 81 29.97 1015.0
08 21:53 NW 10 10.00 Fair CLR 80.1 73.9 82% 85 29.96 1014.5
08 20:53 NW 8 10.00 Fair CLR 79 73.9 85% 83 29.94 1013.8
08 19:53 W 12 10.00 Fair CLR 82 73 91 82 74% 87 29.92 1013.0
08 18:53 NW 8 10.00 Fair CLR 84.9 71.1 63% 90 29.9 1012.5
08 17:53 W 10 10.00 Fair CLR 88 71.1 57% 94 29.9 1012.4
08 16:53 W 10 10.00 Fair CLR 89.1 72 57% 96 29.89 1012.2
08 15:53 SW 9 10.00 Fair CLR 90 72 56% 97 29.91 1012.8
08 14:53 N 9 10.00 A Few Clouds FEW039 90 72 56% 97 29.94 1013.7
08 13:53 W 6 10.00 Partly Cloudy SCT035 89.1 73 89.1 77 59% 97 29.97 1014.7
08 12:53 N 6 10.00 Partly Cloudy SCT033 88 73 61% 96 29.98 1015.3
08 11:53 NW 9 10.00 Partly Cloudy FEW026 SCT030 SCT035 84.9 73.9 70% 92 30 1016.0
08 10:53 N 8 10.00 Partly Cloudy SCT016 86 73.9 67% 94 30.01 1016.3
08 09:53 NW 8 10.00 Mostly Cloudy BKN010 82 75 79% 89 30.01 1016.1
08 09:24 NW 7 10.00 Mostly Cloudy BKN010 79 75 88% 83 30.01 1016.0
08 08:53 NW 7 10.00 Mostly Cloudy BKN010 79 75 88% 83 30.01 1016.0
08 07:53 W 6 10.00 A Few Clouds FEW015 77 75 77 73 94% 78 29.99 1015.4
08 06:53 Calm 10.00 Partly Cloudy SCT017 73 71.1 94% 29.96 1014.6
08 05:53 W 5 10.00 Fair CLR 75 72 90% 74 29.95 1014.0
08 04:53 W 3 10.00 Fair CLR 73.9 71.1 91% 29.94 1013.6
08 03:53 W 5 10.00 Fair CLR 73.9 72 94% 29.93 1013.5
08 02:53 W 5 10.00 Fair CLR 75 72 90% 74 29.95 1014.1
08 01:53 W 6 10.00 Fair CLR 75 72 81 75 90% 74 29.96 1014.6
08 00:53 W 7 10.00 Fair CLR 75.9 72 88% 76 29.97 1014.8
07 23:53 W 6 10.00 Fair CLR 75.9 72 88% 76 29.98 1015.0
07 22:53 W 6 10.00 Fair CLR 75.9 72 88% 76 29.97 1014.9
07 21:53 W 6 10.00 Fair CLR 77 71.1 82% 79 29.97 1014.8
07 20:53 W 8 10.00 Fair CLR 78.1 70 76% 80 29.96 1014.6
07 19:53 W 7 10.00 Fair CLR 81 66.9 90 81 62% 83 29.96 1014.4
07 18:53 W 9 10.00 Fair CLR 84.9 64.9 51% 87 29.95 1014.2
07 17:53 W 8 10.00 Fair CLR 87.1 64 46% 88 29.95 1014.2
07 16:53 W 6 10.00 Fair CLR 89.1 62.1 41% 89 29.96 1014.4
07 15:53 SW 8 10.00 Fair CLR 88 63 43% 89 29.97 1014.7
07 14:53 W 10 10.00 Fair CLR 88 61 40% 88 29.99 1015.6
07 13:53 SW 10 10.00 Fair CLR 87.1 62.1 88 73.9 43% 88 30.01 1016.0
07 12:53 SW 13 10.00 Fair CLR 86 66.9 53% 89 30.01 1016.3
07 11:53 SW 13 10.00 Fair CLR 84.9 66 53% 87 30.02 1016.7
07 10:53 S 13 10.00 Fair CLR 84.9 64 50% 86 30.03 1016.7
07 09:53 S 10 10.00 Fair CLR 82.9 69.1 63% 87 30.02 1016.4
Date Time (edt) Wind (mph) Vis. (mi.) Weather Sky Cond. Air Dwpt Max. Min. Relative Humidity Wind Chill (°F) Heat Index (°F) altimeter (in) sea level (mb) 1 hr 3 hr 6 hr
6 hour
Temperature (ºF) Pressure Precipitation (in)